Terminal Aerodrome Forecast
Issued by NWS Green Bay, WI

Home | Current Version | Previous Version | Text Only | Print | Product List | Glossary Off
Versions: 1 2 3 4 5 6 7 8 9 10 11 12 13 14 15 16 17 18 19 20 21 22 23 24 25 26 27 28 29 30 31 32 33 34 35 36

000
FTUS43 KGRB 080532
TAFGRB
TAF
KGRB 080532Z 0806/0906 21007KT P6SM SCT025 BKN045
      TEMPO 0806/0810 BKN025
     FM081000 24006KT 6SM -SN SCT015 OVC025
      TEMPO 0810/0814 4SM -SN BKN015
     FM081400 29010G20KT 3SM -SN BR OVC015
     FM090000 34012KT 5SM -SN BR OVC011=

USA.gov is the U.S. government's official web portal to all federal, state and local government web resources and services.